OEYN

Yanbu/Prince Abdul Mohsin bin Abdulaziz International Airport

Airport
ICAO code
OEYN
Summary
ICAO Region
MID
ICAO Territory
Location

Yanbu,

Coordinates
24° 8' 41" N , 38° 3' 49" E
KCC
Metar
Observation
OEYN 311900Z 26009KT CAVOK 21/11 Q1010 NOSIG
Station
Yenbo
Date/Time
2023-01-31 20:00:00
Wind direction
260°
Wind speed
09 kts
Lowest cloud amount
clouds and visibility OK
Temperature
21°C
Dew point
11°C
Humidity
52%
QNH
1010 hPa
Weather condition
n/a

Description

Prince Abdul Mohsin bin Abdulaziz International Airport is located 10 nm north of Yanbu, Saudi Arabia.

Climatology

Hot Desert Climate (Köppen climate classification BWh) - Hot desert climates are typically found in the subtropics where there is unbroken sunshine for the whole year due to the stable descending air and high pressure, little or no precipitation. Maximum temperatures of 40°C to 45°C are not uncommon, particularly during the warmer months of the year. During colder periods of the year, night-time temperatures can drop to freezing or below due to the exceptional radiation loss under the clear skies. However, very rarely do temperatures drop far below freezing.

Runways

Designator Length Width Surface Rops
10/28 3210 45 ASP Yes/Yes

Airport map

Aerial View

SKYbrary Partners:

Safety knowledge contributed by: